ETH849 HAAB-FAOR
Flight info
| Callsign | ETH849 |
|---|---|
| Flight time | N/A |
| Altitude | 38000 |
| Route | SHALA2A SHALA UM308 RUDOL/N0484F390 UM308 LOTAS/N0482F400 UM441 LOSIN UM315 USUBI UR409 VMV UP312 GWV UZ11 NESAG UZ7 OKPIT OKPIT4B |
| Aircraft | B77L/H-SDE1E2E3FGHIJ2J3J4J5M1RWXY/LB1D1 |
Departure
| Time | 2026-05-05 20:32 |
|---|---|
| Airport | Addis Ababa Bole International Airport (HAAB) |
Arrival
| Time | N/A |
|---|---|
| Airport | O.R. Tambo International Airport (FAOR) |
| Time | Latitude | Longitude | Altitude | Speed | Heading |
|---|---|---|---|---|---|
| 2026-05-05 19:47 | 8.98231 | 38.79658 | 7625 ft | 0 kts | 343° |
| 2026-05-05 20:20 | 8.98221 | 38.79661 | 7626 ft | 2 kts | 333° |
| 2026-05-05 20:20 | 8.98206 | 38.79670 | 7631 ft | 2 kts | 319° |
| 2026-05-05 20:20 | 8.98195 | 38.79682 | 7632 ft | 2 kts | 297° |
| 2026-05-05 20:20 | 8.98190 | 38.79698 | 7625 ft | 2 kts | 276° |
| 2026-05-05 20:21 | 8.98190 | 38.79716 | 7625 ft | 3 kts | 263° |
| 2026-05-05 20:21 | 8.98192 | 38.79731 | 7628 ft | 2 kts | 257° |
| 2026-05-05 20:21 | 8.98194 | 38.79740 | 7630 ft | 1 kts | 255° |
| 2026-05-05 20:21 | 8.98196 | 38.79748 | 7628 ft | 1 kts | 254° |
| 2026-05-05 20:22 | 8.98199 | 38.79756 | 7630 ft | 1 kts | 253° |
| 2026-05-05 20:22 | 8.98200 | 38.79760 | 7630 ft | 0 kts | 253° |
| 2026-05-05 20:24 | 8.98199 | 38.79756 | 7625 ft | 5 kts | 253° |
| 2026-05-05 20:25 | 8.98175 | 38.79688 | 7625 ft | 11 kts | 241° |
| 2026-05-05 20:25 | 8.98122 | 38.79636 | 7629 ft | 10 kts | 225° |
| 2026-05-05 20:25 | 8.98095 | 38.79575 | 7625 ft | 10 kts | 251° |
| 2026-05-05 20:25 | 8.98076 | 38.79510 | 7625 ft | 10 kts | 253° |
| 2026-05-05 20:26 | 8.98050 | 38.79422 | 7625 ft | 16 kts | 253° |
| 2026-05-05 20:26 | 8.98019 | 38.79316 | 7625 ft | 16 kts | 253° |
| 2026-05-05 20:26 | 8.97989 | 38.79210 | 7625 ft | 16 kts | 253° |
| 2026-05-05 20:26 | 8.97958 | 38.79104 | 7625 ft | 16 kts | 253° |
| 2026-05-05 20:27 | 8.97927 | 38.78998 | 7625 ft | 16 kts | 253° |
| 2026-05-05 20:27 | 8.97897 | 38.78892 | 7625 ft | 16 kts | 253° |
| 2026-05-05 20:27 | 8.97865 | 38.78787 | 7625 ft | 16 kts | 249° |
| 2026-05-05 20:27 | 8.97798 | 38.78725 | 7625 ft | 13 kts | 229° |
| 2026-05-05 20:28 | 8.97763 | 38.78631 | 7626 ft | 17 kts | 255° |
| 2026-05-05 20:28 | 8.97749 | 38.78521 | 7626 ft | 15 kts | 297° |
| 2026-05-05 20:28 | 8.97801 | 38.78438 | 7625 ft | 14 kts | 266° |
| 2026-05-05 20:28 | 8.97775 | 38.78342 | 7627 ft | 14 kts | 253° |
| 2026-05-05 20:29 | 8.97747 | 38.78245 | 7625 ft | 13 kts | 251° |
| 2026-05-05 20:29 | 8.97673 | 38.78200 | 7625 ft | 13 kts | 191° |
| 2026-05-05 20:29 | 8.97583 | 38.78214 | 7626 ft | 13 kts | 164° |
| 2026-05-05 20:29 | 8.97496 | 38.78239 | 7626 ft | 13 kts | 164° |
| 2026-05-05 20:30 | 8.97409 | 38.78265 | 7626 ft | 13 kts | 164° |
| 2026-05-05 20:30 | 8.97327 | 38.78303 | 7625 ft | 13 kts | 147° |
| 2026-05-05 20:30 | 8.97260 | 38.78365 | 7624 ft | 13 kts | 130° |
| 2026-05-05 20:30 | 8.97256 | 38.78443 | 7624 ft | 12 kts | 75° |
| 2026-05-05 20:31 | 8.97283 | 38.78534 | 7625 ft | 22 kts | 73° |
| 2026-05-05 20:31 | 8.97383 | 38.78872 | 7626 ft | 90 kts | 73° |
| 2026-05-05 20:31 | 8.97638 | 38.79740 | 7625 ft | 166 kts | 73° |
| 2026-05-05 20:31 | 8.98003 | 38.80983 | 8032 ft | 189 kts | 73° |
| 2026-05-05 20:32 | 8.98343 | 38.82251 | 8911 ft | 187 kts | 75° |
| 2026-05-05 20:32 | 8.98719 | 38.83505 | 9637 ft | 188 kts | 72° |
| 2026-05-05 20:32 | 8.99162 | 38.84787 | 10205 ft | 201 kts | 71° |
| 2026-05-05 20:32 | 8.99453 | 38.86200 | 10733 ft | 211 kts | 89° |
| 2026-05-05 20:33 | 8.99026 | 38.87634 | 11232 ft | 228 kts | 125° |
| 2026-05-05 20:33 | 8.97643 | 38.88524 | 11699 ft | 249 kts | 166° |
| 2026-05-05 20:33 | 8.95849 | 38.88364 | 12108 ft | 278 kts | 199° |
| 2026-05-05 20:33 | 8.94101 | 38.87389 | 12604 ft | 291 kts | 212° |
| 2026-05-05 20:34 | 8.92452 | 38.86232 | 12777 ft | 287 kts | 214° |
| 2026-05-05 20:34 | 8.90844 | 38.85059 | 12872 ft | 277 kts | 211° |
| 2026-05-05 20:34 | 8.89220 | 38.84093 | 13002 ft | 279 kts | 204° |
| 2026-05-05 20:34 | 8.87304 | 38.83308 | 13047 ft | 317 kts | 197° |
| 2026-05-05 20:35 | 8.85106 | 38.82567 | 13268 ft | 348 kts | 196° |
| 2026-05-05 20:35 | 8.82702 | 38.81785 | 13490 ft | 378 kts | 196° |
| 2026-05-05 20:35 | 8.80123 | 38.80939 | 13947 ft | 397 kts | 197° |
| 2026-05-05 20:35 | 8.77468 | 38.80052 | 14707 ft | 405 kts | 197° |
| 2026-05-05 20:36 | 8.74779 | 38.79143 | 15533 ft | 411 kts | 197° |
| 2026-05-05 20:36 | 8.72052 | 38.78215 | 16379 ft | 415 kts | 197° |
| 2026-05-05 20:36 | 8.69307 | 38.77279 | 17199 ft | 420 kts | 197° |
| 2026-05-05 20:36 | 8.66522 | 38.76330 | 17985 ft | 425 kts | 197° |
| 2026-05-05 20:37 | 8.63702 | 38.75371 | 18728 ft | 430 kts | 197° |
| 2026-05-05 20:37 | 8.60845 | 38.74403 | 19393 ft | 435 kts | 197° |
| 2026-05-05 20:37 | 8.57956 | 38.73428 | 20071 ft | 440 kts | 197° |
| 2026-05-05 20:37 | 8.55038 | 38.72444 | 20732 ft | 444 kts | 197° |
| 2026-05-05 20:38 | 8.52095 | 38.71451 | 21378 ft | 449 kts | 198° |
| 2026-05-05 20:38 | 8.49119 | 38.70446 | 22013 ft | 453 kts | 198° |
| 2026-05-05 20:38 | 8.46110 | 38.69429 | 22626 ft | 458 kts | 198° |
| 2026-05-05 20:38 | 8.43073 | 38.68404 | 23209 ft | 463 kts | 198° |
| 2026-05-05 20:39 | 8.40000 | 38.67365 | 23781 ft | 468 kts | 198° |
| 2026-05-05 20:39 | 8.36898 | 38.66317 | 24249 ft | 472 kts | 198° |
| 2026-05-05 20:39 | 8.33770 | 38.65261 | 24745 ft | 476 kts | 198° |
| 2026-05-05 20:39 | 8.30623 | 38.64199 | 25244 ft | 479 kts | 198° |
| 2026-05-05 20:40 | 8.27450 | 38.63128 | 25722 ft | 482 kts | 198° |
| 2026-05-05 20:40 | 8.24257 | 38.62050 | 26189 ft | 485 kts | 198° |
| 2026-05-05 20:40 | 8.21045 | 38.60967 | 26666 ft | 488 kts | 198° |
| 2026-05-05 20:40 | 8.17854 | 38.59890 | 27131 ft | 491 kts | 198° |
| 2026-05-05 20:41 | 8.14605 | 38.58794 | 27598 ft | 494 kts | 198° |
| 2026-05-05 20:41 | 8.11335 | 38.57691 | 28048 ft | 497 kts | 198° |
| 2026-05-05 20:41 | 8.08041 | 38.56580 | 28464 ft | 501 kts | 198° |
| 2026-05-05 20:41 | 8.04731 | 38.55465 | 28891 ft | 504 kts | 198° |
| 2026-05-05 20:42 | 8.01394 | 38.54340 | 29281 ft | 507 kts | 198° |
| 2026-05-05 20:42 | 7.98041 | 38.53210 | 29676 ft | 510 kts | 198° |
| 2026-05-05 20:42 | 7.94669 | 38.52074 | 30048 ft | 513 kts | 198° |
| 2026-05-05 20:42 | 7.91277 | 38.50931 | 30450 ft | 513 kts | 198° |
| 2026-05-05 20:43 | 7.87896 | 38.49792 | 30921 ft | 511 kts | 198° |
| 2026-05-05 20:43 | 7.84528 | 38.48658 | 31434 ft | 509 kts | 198° |
| 2026-05-05 20:43 | 7.81178 | 38.47530 | 31941 ft | 507 kts | 198° |
| 2026-05-05 20:43 | 7.77835 | 38.46405 | 32439 ft | 506 kts | 198° |
| 2026-05-05 20:44 | 7.74501 | 38.45282 | 32930 ft | 505 kts | 198° |
| 2026-05-05 20:44 | 7.71168 | 38.44161 | 33436 ft | 504 kts | 198° |
| 2026-05-05 20:44 | 7.67854 | 38.43045 | 33934 ft | 502 kts | 198° |
| 2026-05-05 20:44 | 7.64541 | 38.41931 | 34399 ft | 501 kts | 199° |
| 2026-05-05 20:45 | 7.57940 | 38.39710 | 35258 ft | 499 kts | 199° |
| 2026-05-05 20:45 | 7.54652 | 38.38604 | 35699 ft | 497 kts | 199° |
| 2026-05-05 20:45 | 7.51374 | 38.37502 | 36139 ft | 495 kts | 199° |
| 2026-05-05 20:46 | 7.48110 | 38.36406 | 36544 ft | 494 kts | 198° |
| 2026-05-05 20:46 | 7.44828 | 38.35396 | 36940 ft | 493 kts | 196° |
| 2026-05-05 20:46 | 7.41520 | 38.34483 | 37325 ft | 493 kts | 195° |
| 2026-05-05 20:46 | 7.38204 | 38.33613 | 37700 ft | 492 kts | 195° |
| 2026-05-05 20:47 | 7.34893 | 38.32753 | 38085 ft | 491 kts | 195° |
| 2026-05-05 20:47 | 7.31575 | 38.31883 | 38150 ft | 496 kts | 195° |
| 2026-05-05 20:47 | 7.24890 | 38.30095 | 38141 ft | 495 kts | 195° |
| 2026-05-05 20:48 | 7.18295 | 38.28303 | 38128 ft | 488 kts | 195° |
| 2026-05-05 20:48 | 7.11743 | 38.26518 | 38133 ft | 488 kts | 195° |
| 2026-05-05 20:49 | 7.05188 | 38.24735 | 38129 ft | 488 kts | 195° |
| 2026-05-05 20:49 | 6.98673 | 38.22965 | 38140 ft | 488 kts | 195° |
| 2026-05-05 20:50 | 6.92101 | 38.21181 | 38121 ft | 489 kts | 195° |
| 2026-05-05 20:50 | 6.85522 | 38.19395 | 38099 ft | 490 kts | 195° |
| 2026-05-05 20:51 | 6.78934 | 38.17607 | 38098 ft | 491 kts | 195° |
| 2026-05-05 20:51 | 6.72341 | 38.15819 | 38082 ft | 491 kts | 195° |
| 2026-05-05 20:52 | 6.65742 | 38.14029 | 38078 ft | 492 kts | 195° |
| 2026-05-05 20:52 | 6.59135 | 38.12237 | 38068 ft | 492 kts | 195° |
| 2026-05-05 20:53 | 6.52522 | 38.10444 | 38064 ft | 492 kts | 195° |
| 2026-05-05 20:53 | 6.45910 | 38.08645 | 38055 ft | 492 kts | 195° |
| 2026-05-05 20:54 | 6.39294 | 38.06840 | 38053 ft | 493 kts | 195° |
| 2026-05-05 20:54 | 6.32675 | 38.05035 | 38046 ft | 493 kts | 195° |
| 2026-05-05 20:55 | 6.26055 | 38.03231 | 38042 ft | 493 kts | 195° |
| 2026-05-05 20:55 | 6.19433 | 38.01427 | 38040 ft | 493 kts | 195° |
| 2026-05-05 20:56 | 6.12826 | 37.99627 | 38034 ft | 492 kts | 195° |
| 2026-05-05 20:56 | 6.06213 | 37.97827 | 38035 ft | 491 kts | 195° |
| 2026-05-05 20:57 | 5.99619 | 37.96032 | 38027 ft | 491 kts | 195° |
| 2026-05-05 20:57 | 5.93029 | 37.94239 | 38036 ft | 491 kts | 195° |
| 2026-05-05 20:58 | 5.86441 | 37.92446 | 38030 ft | 491 kts | 195° |
| 2026-05-05 20:58 | 5.79846 | 37.90652 | 38046 ft | 491 kts | 195° |
| 2026-05-05 20:59 | 5.73247 | 37.88858 | 38032 ft | 492 kts | 195° |
| 2026-05-05 20:59 | 5.66636 | 37.87060 | 38028 ft | 493 kts | 195° |
| 2026-05-05 21:00 | 5.60012 | 37.85260 | 38042 ft | 493 kts | 195° |
| 2026-05-05 21:00 | 5.53387 | 37.83460 | 38036 ft | 494 kts | 195° |
| 2026-05-05 21:01 | 5.46757 | 37.81658 | 38031 ft | 494 kts | 195° |
| 2026-05-05 21:01 | 5.40121 | 37.79856 | 38038 ft | 494 kts | 195° |
| 2026-05-05 21:02 | 5.34608 | 37.78359 | 38026 ft | 494 kts | 195° |
| 2026-05-05 21:02 | 5.27976 | 37.76558 | 38024 ft | 494 kts | 195° |
| 2026-05-05 21:03 | 5.20266 | 37.74465 | 38028 ft | 494 kts | 195° |
| 2026-05-05 21:03 | 5.14709 | 37.72958 | 38012 ft | 494 kts | 195° |
| 2026-05-05 21:04 | 5.08082 | 37.71159 | 38010 ft | 493 kts | 195° |
| 2026-05-05 21:04 | 5.01466 | 37.69365 | 38008 ft | 493 kts | 195° |
| 2026-05-05 21:05 | 4.94851 | 37.67571 | 38010 ft | 492 kts | 195° |
| 2026-05-05 21:05 | 4.88251 | 37.65781 | 38019 ft | 491 kts | 195° |
| 2026-05-05 21:06 | 4.81659 | 37.63994 | 38009 ft | 490 kts | 195° |
| 2026-05-05 21:06 | 4.75077 | 37.62210 | 38001 ft | 490 kts | 195° |
| 2026-05-05 21:07 | 4.68502 | 37.60428 | 37997 ft | 489 kts | 195° |
| 2026-05-05 21:07 | 4.61932 | 37.58648 | 38011 ft | 489 kts | 195° |
| 2026-05-05 21:08 | 4.55355 | 37.56866 | 37999 ft | 489 kts | 195° |
| 2026-05-05 21:08 | 4.48783 | 37.55086 | 37996 ft | 490 kts | 195° |
| 2026-05-05 21:09 | 4.42197 | 37.53302 | 37983 ft | 490 kts | 195° |
| 2026-05-05 21:09 | 4.35615 | 37.51520 | 37975 ft | 490 kts | 195° |
| 2026-05-05 21:10 | 4.29070 | 37.49749 | 37971 ft | 491 kts | 195° |
| 2026-05-05 21:10 | 4.22474 | 37.47963 | 37969 ft | 491 kts | 195° |
| 2026-05-05 21:11 | 4.15869 | 37.46176 | 37969 ft | 492 kts | 195° |
| 2026-05-05 21:11 | 4.09253 | 37.44386 | 37960 ft | 493 kts | 195° |
| 2026-05-05 21:12 | 4.02619 | 37.42590 | 37939 ft | 495 kts | 194° |
| 2026-05-05 21:12 | 3.95974 | 37.40752 | 38100 ft | 497 kts | 195° |
| 2026-05-05 21:13 | 3.92659 | 37.39777 | 38505 ft | 495 kts | 196° |
| 2026-05-05 21:13 | 3.89356 | 37.38788 | 38823 ft | 495 kts | 196° |
| 2026-05-05 21:13 | 3.86072 | 37.37802 | 38943 ft | 493 kts | 196° |
| 2026-05-05 21:13 | 3.82789 | 37.36818 | 38932 ft | 492 kts | 196° |
| 2026-05-05 21:14 | 3.76218 | 37.34865 | 38934 ft | 493 kts | 196° |
| 2026-05-05 21:14 | 3.69633 | 37.32919 | 38930 ft | 494 kts | 196° |
| 2026-05-05 21:15 | 3.63030 | 37.30971 | 38921 ft | 495 kts | 196° |
| 2026-05-05 21:15 | 3.56421 | 37.29021 | 38910 ft | 495 kts | 196° |
| 2026-05-05 21:16 | 3.49809 | 37.27069 | 38916 ft | 496 kts | 196° |
| 2026-05-05 21:16 | 3.43190 | 37.25115 | 38914 ft | 496 kts | 197° |
| 2026-05-05 21:17 | 3.36574 | 37.23163 | 38904 ft | 496 kts | 196° |
| 2026-05-05 21:17 | 3.29955 | 37.21210 | 38903 ft | 496 kts | 197° |
| 2026-05-05 21:18 | 3.23340 | 37.19258 | 38906 ft | 495 kts | 197° |
| 2026-05-05 21:18 | 3.16725 | 37.17307 | 38905 ft | 495 kts | 197° |
| 2026-05-05 21:19 | 3.10127 | 37.15361 | 38912 ft | 495 kts | 197° |
| 2026-05-05 21:19 | 3.03529 | 37.13415 | 38908 ft | 494 kts | 197° |
| 2026-05-05 21:20 | 2.96941 | 37.11472 | 38916 ft | 493 kts | 197° |
| 2026-05-05 21:20 | 2.90356 | 37.09531 | 38921 ft | 493 kts | 196° |
| 2026-05-05 21:21 | 2.83780 | 37.07593 | 38918 ft | 492 kts | 196° |
| 2026-05-05 21:21 | 2.77207 | 37.05655 | 38929 ft | 492 kts | 196° |
| 2026-05-05 21:22 | 2.70638 | 37.03719 | 38928 ft | 492 kts | 196° |
| 2026-05-05 21:22 | 2.64061 | 37.01781 | 38934 ft | 492 kts | 196° |
| 2026-05-05 21:23 | 2.57501 | 36.99848 | 38932 ft | 492 kts | 196° |
| 2026-05-05 21:23 | 2.50974 | 36.97925 | 38938 ft | 492 kts | 197° |
| 2026-05-05 21:24 | 2.44419 | 36.95994 | 38943 ft | 491 kts | 196° |
| 2026-05-05 21:24 | 2.37861 | 36.94062 | 38940 ft | 491 kts | 196° |
| 2026-05-05 21:25 | 2.31311 | 36.92133 | 38955 ft | 491 kts | 197° |
| 2026-05-05 21:25 | 2.24762 | 36.90205 | 38956 ft | 490 kts | 196° |
| 2026-05-05 21:26 | 2.18217 | 36.88277 | 38957 ft | 490 kts | 196° |
| 2026-05-05 21:26 | 2.11675 | 36.86351 | 38972 ft | 490 kts | 196° |
| 2026-05-05 21:27 | 2.05130 | 36.84424 | 38974 ft | 490 kts | 196° |
| 2026-05-05 21:27 | 1.98586 | 36.82498 | 38972 ft | 490 kts | 196° |
| 2026-05-05 21:28 | 1.92042 | 36.80571 | 38971 ft | 490 kts | 196° |
| 2026-05-05 21:28 | 1.85504 | 36.78647 | 38977 ft | 490 kts | 197° |
| 2026-05-05 21:29 | 1.78963 | 36.76722 | 38973 ft | 490 kts | 196° |
| 2026-05-05 21:29 | 1.72421 | 36.74796 | 38977 ft | 490 kts | 197° |
| 2026-05-05 21:30 | 1.65883 | 36.72872 | 38983 ft | 490 kts | 197° |
| 2026-05-05 21:30 | 1.59345 | 36.70949 | 38980 ft | 490 kts | 197° |
| 2026-05-05 21:31 | 1.52806 | 36.69024 | 38990 ft | 490 kts | 197° |
| 2026-05-05 21:31 | 1.46265 | 36.67100 | 38993 ft | 490 kts | 197° |
| 2026-05-05 21:32 | 1.39727 | 36.65176 | 38995 ft | 490 kts | 197° |
| 2026-05-05 21:32 | 1.33188 | 36.63252 | 39013 ft | 489 kts | 197° |
| 2026-05-05 21:33 | 1.26699 | 36.61343 | 39015 ft | 489 kts | 197° |
| 2026-05-05 21:33 | 1.20173 | 36.59424 | 39021 ft | 489 kts | 197° |
| 2026-05-05 21:34 | 1.13649 | 36.57504 | 39028 ft | 488 kts | 197° |
| 2026-05-05 21:34 | 1.07138 | 36.55589 | 39034 ft | 487 kts | 197° |
| 2026-05-05 21:35 | 1.00628 | 36.53723 | 39043 ft | 487 kts | 194° |
| 2026-05-05 21:35 | 0.93907 | 36.52718 | 39331 ft | 489 kts | 186° |
| 2026-05-05 21:36 | 0.90539 | 36.52406 | 39725 ft | 486 kts | 186° |
| 2026-05-05 21:36 | 0.87179 | 36.52103 | 40067 ft | 484 kts | 186° |
| 2026-05-05 21:36 | 0.80433 | 36.51476 | 40061 ft | 487 kts | 186° |
| 2026-05-05 21:37 | 0.73735 | 36.50822 | 40060 ft | 481 kts | 187° |
| 2026-05-05 21:37 | 0.67102 | 36.50161 | 40072 ft | 478 kts | 187° |
| 2026-05-05 21:38 | 0.60494 | 36.49501 | 40080 ft | 477 kts | 187° |
| 2026-05-05 21:38 | 0.54058 | 36.48860 | 40091 ft | 476 kts | 187° |
| 2026-05-05 21:39 | 0.47458 | 36.48203 | 40095 ft | 477 kts | 187° |
| 2026-05-05 21:39 | 0.40848 | 36.47545 | 40098 ft | 478 kts | 187° |
| 2026-05-05 21:40 | 0.34226 | 36.46886 | 40104 ft | 479 kts | 187° |
| 2026-05-05 21:40 | 0.27589 | 36.46226 | 40112 ft | 480 kts | 187° |
| 2026-05-05 21:41 | 0.20948 | 36.45565 | 40121 ft | 480 kts | 187° |
| 2026-05-05 21:41 | 0.14290 | 36.44903 | 40127 ft | 481 kts | 187° |
| 2026-05-05 21:42 | 0.07631 | 36.44240 | 40142 ft | 481 kts | 187° |
| 2026-05-05 21:42 | 0.00971 | 36.43578 | 40146 ft | 481 kts | 187° |
| 2026-05-05 21:43 | -0.05683 | 36.42916 | 40163 ft | 481 kts | 187° |
| 2026-05-05 21:43 | -0.12341 | 36.42253 | 40162 ft | 480 kts | 187° |
| 2026-05-05 21:44 | -0.18946 | 36.41596 | 40170 ft | 480 kts | 187° |
| 2026-05-05 21:44 | -0.25630 | 36.40931 | 40176 ft | 479 kts | 187° |
| 2026-05-05 21:45 | -0.32221 | 36.40276 | 40180 ft | 479 kts | 187° |
| 2026-05-05 21:45 | -0.38862 | 36.39615 | 40184 ft | 479 kts | 187° |
| 2026-05-05 21:46 | -0.45491 | 36.38955 | 40190 ft | 479 kts | 187° |
| 2026-05-05 21:46 | -0.52127 | 36.38294 | 40182 ft | 479 kts | 187° |
| 2026-05-05 21:47 | -0.58767 | 36.37634 | 40187 ft | 480 kts | 187° |
| 2026-05-05 21:47 | -0.65416 | 36.36988 | 40184 ft | 480 kts | 187° |
| 2026-05-05 21:48 | -0.70939 | 36.36456 | 40185 ft | 480 kts | 187° |
| 2026-05-05 21:48 | -0.77592 | 36.35812 | 40180 ft | 480 kts | 187° |
| 2026-05-05 21:49 | -0.84249 | 36.35166 | 40179 ft | 481 kts | 187° |
| 2026-05-05 21:49 | -0.90907 | 36.34483 | 40178 ft | 481 kts | 188° |
| 2026-05-05 21:50 | -0.97566 | 36.33780 | 40177 ft | 482 kts | 188° |
| 2026-05-05 21:50 | -1.04243 | 36.33082 | 40170 ft | 482 kts | 188° |
| 2026-05-05 21:51 | -1.10918 | 36.32388 | 40171 ft | 483 kts | 188° |
| 2026-05-05 21:51 | -1.17605 | 36.31720 | 40163 ft | 483 kts | 187° |
| 2026-05-05 21:52 | -1.27656 | 36.30736 | 40146 ft | 484 kts | 187° |
| 2026-05-05 21:53 | -1.34359 | 36.30074 | 40144 ft | 484 kts | 187° |
| 2026-05-05 21:53 | -1.41061 | 36.29396 | 40132 ft | 484 kts | 187° |
| 2026-05-05 21:54 | -1.47770 | 36.28707 | 40124 ft | 485 kts | 187° |
| 2026-05-05 21:54 | -1.54482 | 36.28030 | 40117 ft | 485 kts | 187° |
| 2026-05-05 21:55 | -1.61202 | 36.27366 | 40107 ft | 485 kts | 187° |
| 2026-05-05 21:55 | -1.67912 | 36.26702 | 40097 ft | 485 kts | 187° |
| 2026-05-05 21:56 | -1.74624 | 36.26037 | 40091 ft | 485 kts | 187° |
| 2026-05-05 21:56 | -1.81335 | 36.25370 | 40083 ft | 484 kts | 187° |
| 2026-05-05 21:57 | -1.88030 | 36.24705 | 40078 ft | 484 kts | 187° |
| 2026-05-05 21:57 | -1.94734 | 36.24039 | 40073 ft | 483 kts | 187° |
| 2026-05-05 21:58 | -2.01425 | 36.23375 | 40071 ft | 483 kts | 187° |
| 2026-05-05 21:58 | -2.08114 | 36.22710 | 40069 ft | 483 kts | 187° |
| 2026-05-05 21:59 | -2.14804 | 36.22046 | 40059 ft | 483 kts | 187° |
| 2026-05-05 21:59 | -2.21497 | 36.21380 | 40062 ft | 483 kts | 187° |
| 2026-05-05 22:00 | -2.28194 | 36.20714 | 40057 ft | 483 kts | 187° |
| 2026-05-05 22:00 | -2.34886 | 36.20046 | 40059 ft | 483 kts | 187° |
| 2026-05-05 22:01 | -2.41583 | 36.19377 | 40057 ft | 484 kts | 187° |
| 2026-05-05 22:01 | -2.48278 | 36.18709 | 40064 ft | 484 kts | 187° |
| 2026-05-05 22:02 | -2.54981 | 36.18039 | 40064 ft | 484 kts | 187° |
| 2026-05-05 22:02 | -2.61690 | 36.17368 | 40060 ft | 484 kts | 187° |
| 2026-05-05 22:03 | -2.68395 | 36.16700 | 40065 ft | 484 kts | 186° |
| 2026-05-05 22:03 | -2.75106 | 36.16030 | 40076 ft | 485 kts | 186° |
| 2026-05-05 22:04 | -2.81825 | 36.15357 | 40074 ft | 485 kts | 186° |
| 2026-05-05 22:04 | -2.88499 | 36.14687 | 40070 ft | 486 kts | 186° |
| 2026-05-05 22:05 | -2.95238 | 36.14012 | 40066 ft | 487 kts | 186° |
| 2026-05-05 22:05 | -3.01978 | 36.13336 | 40069 ft | 487 kts | 186° |
| 2026-05-05 22:06 | -3.08721 | 36.12659 | 40073 ft | 487 kts | 186° |
| 2026-05-05 22:06 | -3.15460 | 36.11971 | 40068 ft | 487 kts | 187° |
| 2026-05-05 22:07 | -3.22187 | 36.11174 | 40066 ft | 487 kts | 187° |
| 2026-05-05 22:07 | -3.28911 | 36.10320 | 40064 ft | 487 kts | 187° |
| 2026-05-05 22:08 | -3.35639 | 36.09464 | 40062 ft | 488 kts | 187° |
| 2026-05-05 22:08 | -3.42384 | 36.08615 | 40056 ft | 489 kts | 187° |
| 2026-05-05 22:09 | -3.49139 | 36.07768 | 40060 ft | 489 kts | 187° |
| 2026-05-05 22:09 | -3.55900 | 36.06920 | 40059 ft | 490 kts | 187° |
| 2026-05-05 22:10 | -3.62657 | 36.06071 | 40049 ft | 490 kts | 187° |
| 2026-05-05 22:10 | -3.69420 | 36.05223 | 40045 ft | 490 kts | 187° |
| 2026-05-05 22:11 | -3.76183 | 36.04395 | 40044 ft | 489 kts | 186° |
| 2026-05-05 22:11 | -3.82941 | 36.03574 | 40047 ft | 489 kts | 186° |
| 2026-05-05 22:12 | -3.89685 | 36.02753 | 40043 ft | 489 kts | 186° |
| 2026-05-05 22:12 | -3.96442 | 36.01928 | 40046 ft | 488 kts | 186° |
| 2026-05-05 22:13 | -4.03186 | 36.01104 | 40044 ft | 488 kts | 186° |
| 2026-05-05 22:13 | -4.09930 | 36.00280 | 40050 ft | 488 kts | 186° |
| 2026-05-05 22:14 | -4.16659 | 35.99457 | 40054 ft | 487 kts | 186° |
| 2026-05-05 22:14 | -4.23390 | 35.98635 | 40055 ft | 487 kts | 186° |
| 2026-05-05 22:15 | -4.30108 | 35.97813 | 40057 ft | 487 kts | 186° |
| 2026-05-05 22:15 | -4.36831 | 35.96991 | 40062 ft | 486 kts | 186° |
| 2026-05-05 22:16 | -4.43543 | 35.96170 | 40059 ft | 486 kts | 186° |
| 2026-05-05 22:16 | -4.50257 | 35.95347 | 40061 ft | 486 kts | 186° |
| 2026-05-05 22:17 | -4.56960 | 35.94515 | 40059 ft | 485 kts | 186° |
| 2026-05-05 22:17 | -4.63662 | 35.93678 | 40061 ft | 485 kts | 186° |
| 2026-05-05 22:18 | -4.70358 | 35.92843 | 40060 ft | 485 kts | 186° |
| 2026-05-05 22:18 | -4.77057 | 35.92009 | 40060 ft | 485 kts | 186° |
| 2026-05-05 22:19 | -4.83748 | 35.91176 | 40052 ft | 485 kts | 186° |
| 2026-05-05 22:19 | -4.90435 | 35.90343 | 40058 ft | 484 kts | 186° |
| 2026-05-05 22:20 | -4.97129 | 35.89509 | 40059 ft | 484 kts | 186° |
| 2026-05-05 22:20 | -5.03813 | 35.88676 | 40054 ft | 484 kts | 186° |
| 2026-05-05 22:21 | -5.10493 | 35.87844 | 40050 ft | 484 kts | 186° |
| 2026-05-05 22:21 | -5.17179 | 35.87010 | 40048 ft | 484 kts | 186° |
| 2026-05-05 22:22 | -5.23819 | 35.86182 | 40051 ft | 484 kts | 186° |
| 2026-05-05 22:22 | -5.30538 | 35.85344 | 40046 ft | 484 kts | 186° |
| 2026-05-05 22:23 | -5.37173 | 35.84516 | 40040 ft | 484 kts | 186° |
| 2026-05-05 22:23 | -5.43852 | 35.83684 | 40039 ft | 483 kts | 186° |
| 2026-05-05 22:24 | -5.50526 | 35.82854 | 40038 ft | 483 kts | 186° |
| 2026-05-05 22:24 | -5.57197 | 35.82023 | 40036 ft | 483 kts | 186° |
| 2026-05-05 22:25 | -5.63872 | 35.81191 | 40030 ft | 483 kts | 186° |
| 2026-05-05 22:25 | -5.70549 | 35.80366 | 40027 ft | 483 kts | 186° |
| 2026-05-05 22:26 | -5.77224 | 35.79553 | 40025 ft | 483 kts | 186° |
| 2026-05-05 22:26 | -5.83893 | 35.78740 | 40022 ft | 483 kts | 186° |
| 2026-05-05 22:27 | -5.90559 | 35.77925 | 40017 ft | 483 kts | 186° |
| 2026-05-05 22:27 | -5.97225 | 35.77109 | 40018 ft | 482 kts | 186° |
| 2026-05-05 22:28 | -6.03887 | 35.76293 | 40016 ft | 482 kts | 186° |
| 2026-05-05 22:28 | -6.10541 | 35.75479 | 40016 ft | 482 kts | 186° |
| 2026-05-05 22:29 | -6.17195 | 35.74619 | 40023 ft | 482 kts | 188° |
| 2026-05-05 22:29 | -6.23726 | 35.73100 | 40005 ft | 482 kts | 194° |
| 2026-05-05 22:30 | -6.30233 | 35.71426 | 40013 ft | 483 kts | 194° |
| 2026-05-05 22:30 | -6.35657 | 35.70042 | 40011 ft | 484 kts | 194° |
| 2026-05-05 22:31 | -6.43307 | 35.68122 | 40010 ft | 486 kts | 194° |
| 2026-05-05 22:31 | -6.49874 | 35.66488 | 40008 ft | 486 kts | 194° |
| 2026-05-05 22:32 | -6.56442 | 35.64853 | 40000 ft | 486 kts | 194° |
| 2026-05-05 22:32 | -6.62973 | 35.63226 | 39997 ft | 486 kts | 194° |
| 2026-05-05 22:33 | -6.69540 | 35.61588 | 39997 ft | 486 kts | 194° |
| 2026-05-05 22:33 | -6.76104 | 35.59951 | 39997 ft | 486 kts | 194° |
| 2026-05-05 22:34 | -6.81609 | 35.58577 | 39994 ft | 486 kts | 194° |
| 2026-05-05 22:34 | -6.88124 | 35.56951 | 39990 ft | 486 kts | 194° |
| 2026-05-05 22:35 | -6.94726 | 35.55303 | 39987 ft | 485 kts | 194° |
| 2026-05-05 22:35 | -7.01281 | 35.53666 | 39986 ft | 485 kts | 194° |
| 2026-05-05 22:36 | -7.07785 | 35.52042 | 39985 ft | 485 kts | 194° |
| 2026-05-05 22:36 | -7.14340 | 35.50404 | 39983 ft | 485 kts | 194° |
| 2026-05-05 22:37 | -7.20888 | 35.48767 | 39983 ft | 485 kts | 194° |
| 2026-05-05 22:37 | -7.27440 | 35.47129 | 39987 ft | 485 kts | 194° |
| 2026-05-05 22:38 | -7.33992 | 35.45491 | 39989 ft | 485 kts | 194° |
| 2026-05-05 22:38 | -7.40544 | 35.43851 | 39990 ft | 485 kts | 194° |
| 2026-05-05 22:39 | -7.47094 | 35.42213 | 39997 ft | 485 kts | 194° |
| 2026-05-05 22:39 | -7.53648 | 35.40572 | 40001 ft | 485 kts | 194° |
| 2026-05-05 22:40 | -7.60207 | 35.38930 | 40006 ft | 485 kts | 194° |
| 2026-05-05 22:40 | -7.66760 | 35.37288 | 40013 ft | 485 kts | 194° |
| 2026-05-05 22:41 | -7.73314 | 35.35646 | 40020 ft | 485 kts | 194° |
| 2026-05-05 22:41 | -7.79871 | 35.34003 | 40029 ft | 485 kts | 194° |
| 2026-05-05 22:42 | -7.86432 | 35.32358 | 40036 ft | 486 kts | 194° |
| 2026-05-05 22:42 | -7.92993 | 35.30713 | 40045 ft | 486 kts | 194° |
| 2026-05-05 22:43 | -7.99557 | 35.29066 | 40053 ft | 486 kts | 194° |
| 2026-05-05 22:43 | -8.06121 | 35.27418 | 40059 ft | 486 kts | 194° |
| 2026-05-05 22:44 | -8.12616 | 35.25592 | 40055 ft | 483 kts | 195° |
| 2026-05-05 22:44 | -8.19159 | 35.24149 | 40067 ft | 482 kts | 193° |
| 2026-05-05 22:45 | -8.25694 | 35.22550 | 40074 ft | 485 kts | 194° |
| 2026-05-05 22:45 | -8.32248 | 35.20871 | 40075 ft | 487 kts | 194° |
| 2026-05-05 22:46 | -8.38828 | 35.19200 | 40073 ft | 488 kts | 194° |
| 2026-05-05 22:46 | -8.45428 | 35.17540 | 40071 ft | 489 kts | 194° |
| 2026-05-05 22:47 | -8.52032 | 35.15880 | 40069 ft | 489 kts | 194° |
| 2026-05-05 22:47 | -8.58635 | 35.14218 | 40067 ft | 489 kts | 194° |
| 2026-05-05 22:48 | -8.65228 | 35.12565 | 40066 ft | 488 kts | 194° |
| 2026-05-05 22:48 | -8.71815 | 35.10918 | 40067 ft | 487 kts | 194° |
| 2026-05-05 22:49 | -8.78343 | 35.09285 | 40066 ft | 486 kts | 194° |
| 2026-05-05 22:49 | -8.84900 | 35.07643 | 40068 ft | 485 kts | 194° |
| 2026-05-05 22:50 | -8.91441 | 35.06004 | 40072 ft | 484 kts | 194° |
| 2026-05-05 22:50 | -8.97980 | 35.04364 | 40070 ft | 484 kts | 194° |
| 2026-05-05 22:51 | -9.04517 | 35.02725 | 40073 ft | 484 kts | 194° |
| 2026-05-05 22:51 | -9.11046 | 35.01087 | 40078 ft | 484 kts | 194° |
| 2026-05-05 22:52 | -9.17574 | 34.99448 | 40080 ft | 484 kts | 194° |
| 2026-05-05 22:52 | -9.24109 | 34.97807 | 40087 ft | 484 kts | 194° |
| 2026-05-05 22:53 | -9.30643 | 34.96166 | 40089 ft | 484 kts | 194° |
| 2026-05-05 22:53 | -9.37167 | 34.94499 | 40086 ft | 484 kts | 194° |
| 2026-05-05 22:54 | -9.43686 | 34.92804 | 40088 ft | 484 kts | 194° |
| 2026-05-05 22:54 | -9.50214 | 34.91106 | 40095 ft | 484 kts | 194° |
| 2026-05-05 22:55 | -9.56741 | 34.89412 | 40085 ft | 484 kts | 194° |
| 2026-05-05 22:55 | -9.63262 | 34.87722 | 40087 ft | 484 kts | 194° |
| 2026-05-05 22:56 | -9.69793 | 34.86028 | 40078 ft | 484 kts | 195° |
| 2026-05-05 22:56 | -9.76318 | 34.84335 | 40077 ft | 484 kts | 195° |
| 2026-05-05 22:57 | -9.82847 | 34.82640 | 40069 ft | 484 kts | 195° |
| 2026-05-05 22:57 | -9.89378 | 34.80944 | 40059 ft | 484 kts | 195° |
| 2026-05-05 22:58 | -9.95904 | 34.79249 | 40049 ft | 484 kts | 195° |
| 2026-05-05 22:58 | -10.02394 | 34.77562 | 40042 ft | 485 kts | 195° |
| 2026-05-05 22:59 | -10.08973 | 34.75851 | 40029 ft | 485 kts | 195° |
| 2026-05-05 22:59 | -10.15462 | 34.74163 | 40018 ft | 485 kts | 195° |
| 2026-05-05 23:00 | -10.25261 | 34.71613 | 40010 ft | 485 kts | 195° |
| 2026-05-05 23:00 | -10.31797 | 34.69911 | 39997 ft | 485 kts | 195° |
| 2026-05-05 23:01 | -10.38329 | 34.68209 | 39990 ft | 485 kts | 195° |
| 2026-05-05 23:01 | -10.44857 | 34.66507 | 39980 ft | 484 kts | 195° |
| 2026-05-05 23:02 | -10.51389 | 34.64804 | 39976 ft | 484 kts | 195° |
| 2026-05-05 23:02 | -10.57913 | 34.63113 | 39991 ft | 484 kts | 195° |
| 2026-05-05 23:03 | -10.64476 | 34.61523 | 39975 ft | 485 kts | 194° |
| 2026-05-05 23:03 | -10.71038 | 34.59963 | 39970 ft | 485 kts | 194° |
| 2026-05-05 23:04 | -10.77604 | 34.58387 | 39974 ft | 484 kts | 194° |
| 2026-05-05 23:04 | -10.84161 | 34.56803 | 39969 ft | 485 kts | 194° |
| 2026-05-05 23:05 | -10.90724 | 34.55214 | 39968 ft | 485 kts | 195° |
| 2026-05-05 23:05 | -10.97283 | 34.53627 | 39966 ft | 485 kts | 195° |
| 2026-05-05 23:06 | -11.03843 | 34.52039 | 39963 ft | 485 kts | 195° |
| 2026-05-05 23:06 | -11.10412 | 34.50448 | 39963 ft | 485 kts | 195° |
| 2026-05-05 23:07 | -11.16979 | 34.48857 | 39963 ft | 485 kts | 195° |
| 2026-05-05 23:07 | -11.23512 | 34.47143 | 39958 ft | 485 kts | 197° |
| 2026-05-05 23:08 | -11.30033 | 34.45362 | 39961 ft | 485 kts | 197° |
| 2026-05-05 23:08 | -11.36562 | 34.43606 | 39960 ft | 485 kts | 197° |
| 2026-05-05 23:09 | -11.43061 | 34.41894 | 39960 ft | 486 kts | 196° |
| 2026-05-05 23:09 | -11.49625 | 34.40244 | 39959 ft | 486 kts | 195° |
| 2026-05-05 23:10 | -11.56194 | 34.38601 | 39962 ft | 486 kts | 196° |
| 2026-05-05 23:10 | -11.62765 | 34.36945 | 39958 ft | 486 kts | 196° |
| 2026-05-05 23:11 | -11.69328 | 34.35284 | 39958 ft | 486 kts | 196° |
| 2026-05-05 23:11 | -11.75899 | 34.33619 | 39954 ft | 486 kts | 196° |
| 2026-05-05 23:12 | -11.82463 | 34.31955 | 39957 ft | 486 kts | 196° |
| 2026-05-05 23:12 | -11.89037 | 34.30288 | 39959 ft | 487 kts | 196° |
| 2026-05-05 23:13 | -11.95606 | 34.28622 | 39959 ft | 487 kts | 196° |
| 2026-05-05 23:13 | -12.02180 | 34.26953 | 39958 ft | 487 kts | 196° |
| 2026-05-05 23:14 | -12.08752 | 34.25284 | 39955 ft | 487 kts | 196° |
| 2026-05-05 23:14 | -12.15322 | 34.23615 | 39954 ft | 487 kts | 196° |
| 2026-05-05 23:15 | -12.21894 | 34.21945 | 39959 ft | 487 kts | 196° |
| 2026-05-05 23:15 | -12.28466 | 34.20274 | 39961 ft | 487 kts | 196° |
| 2026-05-05 23:16 | -12.35044 | 34.18600 | 39962 ft | 487 kts | 196° |
| 2026-05-05 23:16 | -12.41618 | 34.16927 | 39968 ft | 487 kts | 196° |
| 2026-05-05 23:17 | -12.48194 | 34.15251 | 39971 ft | 487 kts | 196° |
| 2026-05-05 23:17 | -12.54778 | 34.13574 | 39970 ft | 487 kts | 196° |
| 2026-05-05 23:18 | -12.61358 | 34.11896 | 39975 ft | 488 kts | 196° |
| 2026-05-05 23:18 | -12.67949 | 34.10214 | 39978 ft | 488 kts | 196° |
| 2026-05-05 23:19 | -12.74538 | 34.08533 | 39982 ft | 488 kts | 196° |
| 2026-05-05 23:19 | -12.80020 | 34.07133 | 39984 ft | 489 kts | 196° |
| 2026-05-05 23:20 | -12.86618 | 34.05447 | 39986 ft | 489 kts | 196° |
| 2026-05-05 23:20 | -12.93219 | 34.03759 | 39994 ft | 489 kts | 196° |
| 2026-05-05 23:21 | -12.99817 | 34.02071 | 39997 ft | 489 kts | 197° |
| 2026-05-05 23:21 | -13.06413 | 34.00361 | 40003 ft | 489 kts | 197° |
| 2026-05-05 23:22 | -13.13002 | 33.98636 | 40006 ft | 489 kts | 197° |
| 2026-05-05 23:22 | -13.19592 | 33.96911 | 40012 ft | 489 kts | 197° |
| 2026-05-05 23:23 | -13.26185 | 33.95188 | 40015 ft | 489 kts | 197° |
| 2026-05-05 23:23 | -13.32775 | 33.93465 | 40022 ft | 488 kts | 197° |
| 2026-05-05 23:24 | -13.39354 | 33.91745 | 40025 ft | 488 kts | 197° |
| 2026-05-05 23:24 | -13.45932 | 33.90023 | 40026 ft | 488 kts | 197° |
| 2026-05-05 23:25 | -13.52520 | 33.88298 | 40027 ft | 488 kts | 197° |
| 2026-05-05 23:25 | -13.59098 | 33.86574 | 40028 ft | 488 kts | 197° |
| 2026-05-05 23:26 | -13.65670 | 33.84851 | 40027 ft | 487 kts | 197° |
| 2026-05-05 23:26 | -13.72237 | 33.83127 | 40038 ft | 487 kts | 197° |
| 2026-05-05 23:27 | -13.78811 | 33.81401 | 40038 ft | 487 kts | 198° |
| 2026-05-05 23:27 | -13.85155 | 33.79087 | 40042 ft | 482 kts | 206° |
| 2026-05-05 23:28 | -13.91277 | 33.76262 | 40038 ft | 482 kts | 207° |
| 2026-05-05 23:28 | -13.97345 | 33.73447 | 40047 ft | 482 kts | 207° |
| 2026-05-05 23:29 | -14.03484 | 33.70639 | 40043 ft | 482 kts | 207° |
| 2026-05-05 23:29 | -14.09627 | 33.67849 | 40039 ft | 482 kts | 207° |
| 2026-05-05 23:30 | -14.15766 | 33.65060 | 40042 ft | 483 kts | 207° |
| 2026-05-05 23:30 | -14.21912 | 33.62265 | 40046 ft | 483 kts | 207° |
| 2026-05-05 23:31 | -14.28064 | 33.59464 | 40040 ft | 483 kts | 207° |
| 2026-05-05 23:31 | -14.34214 | 33.56662 | 40043 ft | 483 kts | 207° |
| 2026-05-05 23:32 | -14.40365 | 33.53857 | 40043 ft | 483 kts | 207° |
| 2026-05-05 23:32 | -14.46520 | 33.51049 | 40035 ft | 483 kts | 207° |
| 2026-05-05 23:33 | -14.52672 | 33.48241 | 40028 ft | 484 kts | 207° |
| 2026-05-05 23:33 | -14.58826 | 33.45432 | 40022 ft | 484 kts | 207° |
| 2026-05-05 23:34 | -14.64983 | 33.42637 | 40025 ft | 484 kts | 207° |
| 2026-05-05 23:34 | -14.71145 | 33.39840 | 40011 ft | 484 kts | 207° |
| 2026-05-05 23:35 | -14.77308 | 33.37039 | 40010 ft | 484 kts | 207° |
| 2026-05-05 23:35 | -14.83471 | 33.34233 | 39994 ft | 484 kts | 207° |
| 2026-05-05 23:36 | -14.89631 | 33.31428 | 39986 ft | 484 kts | 207° |
| 2026-05-05 23:36 | -14.95791 | 33.28621 | 39973 ft | 484 kts | 207° |
| 2026-05-05 23:37 | -15.01940 | 33.25804 | 39967 ft | 483 kts | 208° |
| 2026-05-05 23:37 | -15.08033 | 33.22902 | 39964 ft | 482 kts | 208° |
| 2026-05-05 23:38 | -15.14113 | 33.19974 | 39949 ft | 482 kts | 208° |
| 2026-05-05 23:38 | -15.20193 | 33.17057 | 39937 ft | 482 kts | 208° |
| 2026-05-05 23:39 | -15.26281 | 33.14145 | 39929 ft | 482 kts | 208° |
| 2026-05-05 23:39 | -15.32363 | 33.11235 | 39942 ft | 482 kts | 208° |
| 2026-05-05 23:40 | -15.38451 | 33.08319 | 39937 ft | 482 kts | 208° |
| 2026-05-05 23:40 | -15.44541 | 33.05400 | 39922 ft | 482 kts | 208° |
| 2026-05-05 23:41 | -15.50630 | 33.02479 | 39935 ft | 482 kts | 208° |
| 2026-05-05 23:41 | -15.56717 | 32.99558 | 39923 ft | 482 kts | 208° |
| 2026-05-05 23:42 | -15.62794 | 32.96615 | 39910 ft | 482 kts | 209° |
| 2026-05-05 23:42 | -15.68853 | 32.93632 | 39920 ft | 482 kts | 209° |
| 2026-05-05 23:43 | -15.74864 | 32.90666 | 39910 ft | 482 kts | 209° |
| 2026-05-05 23:43 | -15.80922 | 32.87681 | 39913 ft | 482 kts | 209° |
| 2026-05-05 23:44 | -15.86982 | 32.84698 | 39914 ft | 482 kts | 209° |
| 2026-05-05 23:44 | -15.93039 | 32.81714 | 39917 ft | 482 kts | 209° |
| 2026-05-05 23:45 | -15.99100 | 32.78726 | 39919 ft | 482 kts | 209° |
| 2026-05-05 23:45 | -16.05162 | 32.75736 | 39916 ft | 482 kts | 209° |
| 2026-05-05 23:46 | -16.11226 | 32.72742 | 39921 ft | 482 kts | 209° |
| 2026-05-05 23:46 | -16.17288 | 32.69747 | 39923 ft | 483 kts | 209° |
| 2026-05-05 23:47 | -16.23355 | 32.66748 | 39926 ft | 483 kts | 209° |
| 2026-05-05 23:47 | -16.29421 | 32.63747 | 39927 ft | 483 kts | 209° |
| 2026-05-05 23:48 | -16.35492 | 32.60741 | 39933 ft | 483 kts | 209° |
| 2026-05-05 23:48 | -16.41562 | 32.57734 | 39934 ft | 483 kts | 209° |
| 2026-05-05 23:49 | -16.47640 | 32.54720 | 39943 ft | 484 kts | 209° |
| 2026-05-05 23:49 | -16.53733 | 32.51733 | 39940 ft | 484 kts | 208° |
| 2026-05-05 23:50 | -16.59881 | 32.48843 | 39947 ft | 485 kts | 208° |
| 2026-05-05 23:50 | -16.66033 | 32.45962 | 39950 ft | 485 kts | 208° |
| 2026-05-05 23:51 | -16.72176 | 32.43065 | 39955 ft | 485 kts | 208° |
| 2026-05-05 23:51 | -16.78323 | 32.40156 | 39961 ft | 485 kts | 208° |
| 2026-05-05 23:52 | -16.84465 | 32.37246 | 39967 ft | 485 kts | 208° |
| 2026-05-05 23:52 | -16.90600 | 32.34338 | 39972 ft | 485 kts | 208° |
| 2026-05-05 23:53 | -16.96743 | 32.31424 | 39978 ft | 485 kts | 208° |
| 2026-05-05 23:53 | -17.02884 | 32.28510 | 39985 ft | 485 kts | 208° |
| 2026-05-05 23:54 | -17.09020 | 32.25595 | 39984 ft | 485 kts | 208° |
| 2026-05-05 23:54 | -17.15162 | 32.22690 | 39996 ft | 485 kts | 208° |
| 2026-05-05 23:55 | -17.21320 | 32.19803 | 40000 ft | 485 kts | 208° |
| 2026-05-05 23:55 | -17.27481 | 32.16915 | 39996 ft | 485 kts | 208° |
| 2026-05-05 23:56 | -17.33637 | 32.14021 | 39995 ft | 485 kts | 208° |
| 2026-05-05 23:56 | -17.39753 | 32.11142 | 40007 ft | 485 kts | 208° |
| 2026-05-05 23:57 | -17.45914 | 32.08240 | 40018 ft | 486 kts | 208° |
| 2026-05-05 23:57 | -17.52076 | 32.05335 | 40018 ft | 486 kts | 208° |
| 2026-05-05 23:58 | -17.58284 | 32.02408 | 40020 ft | 486 kts | 208° |
| 2026-05-05 23:58 | -17.64444 | 31.99499 | 40033 ft | 486 kts | 208° |
| 2026-05-05 23:59 | -17.70619 | 31.96580 | 40031 ft | 486 kts | 208° |
| 2026-05-05 23:59 | -17.76749 | 31.93681 | 40032 ft | 487 kts | 208° |
| 2026-05-06 00:00 | -17.82921 | 31.90761 | 40036 ft | 487 kts | 208° |
| 2026-05-06 00:00 | -17.89103 | 31.87834 | 40032 ft | 487 kts | 208° |
| 2026-05-06 00:01 | -17.95325 | 31.84885 | 40041 ft | 487 kts | 208° |
| 2026-05-06 00:01 | -18.01468 | 31.81971 | 40035 ft | 488 kts | 208° |
| 2026-05-06 00:02 | -18.07649 | 31.79037 | 40034 ft | 488 kts | 208° |
| 2026-05-06 00:02 | -18.13842 | 31.76095 | 40037 ft | 488 kts | 208° |
| 2026-05-06 00:03 | -18.20028 | 31.73154 | 40052 ft | 488 kts | 208° |
| 2026-05-06 00:03 | -18.26223 | 31.70224 | 40038 ft | 488 kts | 208° |
| 2026-05-06 00:04 | -18.32431 | 31.67308 | 40034 ft | 489 kts | 208° |
| 2026-05-06 00:04 | -18.37633 | 31.64864 | 40038 ft | 489 kts | 208° |
| 2026-05-06 00:05 | -18.46947 | 31.60477 | 40034 ft | 489 kts | 208° |
| 2026-05-06 00:06 | -18.53117 | 31.57565 | 40032 ft | 489 kts | 209° |
| 2026-05-06 00:06 | -18.59323 | 31.54635 | 40032 ft | 489 kts | 209° |
| 2026-05-06 00:07 | -18.65533 | 31.51700 | 40030 ft | 489 kts | 209° |
| 2026-05-06 00:07 | -18.71740 | 31.48765 | 40018 ft | 489 kts | 209° |
| 2026-05-06 00:08 | -18.77946 | 31.45828 | 40015 ft | 489 kts | 209° |
| 2026-05-06 00:08 | -18.84149 | 31.42889 | 40024 ft | 489 kts | 209° |
| 2026-05-06 00:09 | -18.90354 | 31.39947 | 40012 ft | 489 kts | 209° |
| 2026-05-06 00:09 | -18.96553 | 31.37006 | 40008 ft | 489 kts | 209° |
| 2026-05-06 00:10 | -19.02758 | 31.34058 | 40009 ft | 489 kts | 210° |
| 2026-05-06 00:10 | -19.08954 | 31.31114 | 40000 ft | 489 kts | 210° |
| 2026-05-06 00:11 | -19.15165 | 31.28184 | 40014 ft | 489 kts | 209° |
| 2026-05-06 00:11 | -19.21387 | 31.25266 | 40002 ft | 489 kts | 209° |
| 2026-05-06 00:12 | -19.27614 | 31.22343 | 40001 ft | 490 kts | 210° |
| 2026-05-06 00:12 | -19.33843 | 31.19412 | 40002 ft | 490 kts | 210° |
| 2026-05-06 00:13 | -19.40069 | 31.16478 | 40000 ft | 490 kts | 210° |
| 2026-05-06 00:13 | -19.46297 | 31.13541 | 39999 ft | 490 kts | 210° |
| 2026-05-06 00:14 | -19.52486 | 31.10620 | 39999 ft | 490 kts | 210° |
| 2026-05-06 00:14 | -19.58717 | 31.07677 | 39995 ft | 490 kts | 210° |
| 2026-05-06 00:15 | -19.64949 | 31.04731 | 39975 ft | 491 kts | 210° |
| 2026-05-06 00:15 | -19.71188 | 31.01779 | 39990 ft | 491 kts | 210° |
| 2026-05-06 00:16 | -19.77427 | 30.98824 | 39992 ft | 491 kts | 210° |
| 2026-05-06 00:16 | -19.83666 | 30.95867 | 39971 ft | 491 kts | 210° |
| 2026-05-06 00:17 | -19.89910 | 30.92904 | 39967 ft | 492 kts | 210° |
| 2026-05-06 00:17 | -19.96147 | 30.89942 | 39965 ft | 491 kts | 211° |
| 2026-05-06 00:18 | -20.02396 | 30.86973 | 39959 ft | 491 kts | 211° |
| 2026-05-06 00:18 | -20.08464 | 30.83721 | 39955 ft | 484 kts | 218° |
| 2026-05-06 00:19 | -20.14196 | 30.79977 | 39950 ft | 483 kts | 219° |
| 2026-05-06 00:19 | -20.19897 | 30.76190 | 39953 ft | 483 kts | 219° |
| 2026-05-06 00:20 | -20.25627 | 30.72418 | 39939 ft | 484 kts | 219° |
| 2026-05-06 00:20 | -20.31365 | 30.68667 | 39930 ft | 484 kts | 219° |
| 2026-05-06 00:21 | -20.37104 | 30.64921 | 39921 ft | 483 kts | 219° |
| 2026-05-06 00:21 | -20.42828 | 30.61179 | 39918 ft | 483 kts | 219° |
| 2026-05-06 00:22 | -20.48552 | 30.57432 | 39905 ft | 482 kts | 219° |
| 2026-05-06 00:22 | -20.54227 | 30.53714 | 39913 ft | 482 kts | 219° |
| 2026-05-06 00:23 | -20.59968 | 30.49949 | 39900 ft | 481 kts | 219° |
| 2026-05-06 00:23 | -20.65634 | 30.46229 | 39897 ft | 481 kts | 219° |
| 2026-05-06 00:24 | -20.71373 | 30.42458 | 39890 ft | 481 kts | 219° |
| 2026-05-06 00:24 | -20.77037 | 30.38733 | 39886 ft | 481 kts | 219° |
| 2026-05-06 00:25 | -20.82743 | 30.34977 | 39874 ft | 482 kts | 219° |
| 2026-05-06 00:25 | -20.88454 | 30.31214 | 39873 ft | 482 kts | 219° |
| 2026-05-06 00:26 | -20.94168 | 30.27447 | 39859 ft | 483 kts | 219° |
| 2026-05-06 00:26 | -20.99880 | 30.23677 | 39858 ft | 483 kts | 219° |
| 2026-05-06 00:27 | -21.05596 | 30.19902 | 39875 ft | 483 kts | 219° |
| 2026-05-06 00:27 | -21.11315 | 30.16121 | 39862 ft | 483 kts | 220° |
| 2026-05-06 00:28 | -21.17035 | 30.12334 | 39862 ft | 483 kts | 220° |
| 2026-05-06 00:28 | -21.22759 | 30.08544 | 39857 ft | 484 kts | 220° |
| 2026-05-06 00:29 | -21.28484 | 30.04748 | 39861 ft | 484 kts | 220° |
| 2026-05-06 00:29 | -21.34211 | 30.00946 | 39861 ft | 484 kts | 220° |
| 2026-05-06 00:30 | -21.39942 | 29.97140 | 39854 ft | 485 kts | 220° |
| 2026-05-06 00:30 | -21.45682 | 29.93323 | 39855 ft | 485 kts | 220° |
| 2026-05-06 00:31 | -21.51415 | 29.89508 | 39846 ft | 485 kts | 220° |
| 2026-05-06 00:31 | -21.57154 | 29.85685 | 39848 ft | 485 kts | 220° |
| 2026-05-06 00:32 | -21.62892 | 29.81860 | 39841 ft | 485 kts | 220° |
| 2026-05-06 00:32 | -21.68625 | 29.78034 | 39834 ft | 485 kts | 220° |
| 2026-05-06 00:33 | -21.74359 | 29.74204 | 39840 ft | 485 kts | 220° |
| 2026-05-06 00:33 | -21.80084 | 29.70375 | 39835 ft | 485 kts | 220° |
| 2026-05-06 00:34 | -21.85811 | 29.66542 | 39836 ft | 484 kts | 220° |
| 2026-05-06 00:34 | -21.91527 | 29.62713 | 39837 ft | 484 kts | 220° |
| 2026-05-06 00:35 | -21.97247 | 29.58877 | 39838 ft | 484 kts | 220° |
| 2026-05-06 00:35 | -22.02961 | 29.55040 | 39841 ft | 484 kts | 220° |
| 2026-05-06 00:36 | -22.08673 | 29.51202 | 39837 ft | 484 kts | 220° |
| 2026-05-06 00:36 | -22.14388 | 29.47358 | 39841 ft | 484 kts | 220° |
| 2026-05-06 00:37 | -22.20166 | 29.43599 | 39850 ft | 488 kts | 217° |
| 2026-05-06 00:37 | -22.26537 | 29.40753 | 39844 ft | 503 kts | 205° |
| 2026-05-06 00:38 | -22.33395 | 29.39067 | 39855 ft | 512 kts | 198° |
| 2026-05-06 00:38 | -22.40412 | 29.37710 | 39858 ft | 513 kts | 198° |
| 2026-05-06 00:39 | -22.47437 | 29.36343 | 39856 ft | 513 kts | 198° |
| 2026-05-06 00:39 | -22.54453 | 29.34931 | 39860 ft | 513 kts | 199° |
| 2026-05-06 00:40 | -22.61474 | 29.33495 | 39866 ft | 513 kts | 199° |
| 2026-05-06 00:40 | -22.68489 | 29.32057 | 39864 ft | 513 kts | 199° |
| 2026-05-06 00:41 | -22.75499 | 29.30621 | 39875 ft | 513 kts | 199° |
| 2026-05-06 00:41 | -22.82511 | 29.29186 | 39880 ft | 513 kts | 199° |
| 2026-05-06 00:42 | -22.89523 | 29.27748 | 39888 ft | 513 kts | 199° |
| 2026-05-06 00:42 | -22.96540 | 29.26308 | 39879 ft | 513 kts | 199° |
| 2026-05-06 00:43 | -23.03545 | 29.24869 | 39891 ft | 513 kts | 199° |
| 2026-05-06 00:43 | -23.10557 | 29.23427 | 39893 ft | 513 kts | 199° |
| 2026-05-06 00:44 | -23.17578 | 29.21982 | 39896 ft | 513 kts | 199° |
| 2026-05-06 00:44 | -23.24591 | 29.20537 | 39904 ft | 513 kts | 199° |
| 2026-05-06 00:45 | -23.31610 | 29.19089 | 39897 ft | 513 kts | 199° |
| 2026-05-06 00:45 | -23.38623 | 29.17640 | 39902 ft | 513 kts | 199° |
| 2026-05-06 00:46 | -23.45636 | 29.16191 | 39902 ft | 513 kts | 199° |
| 2026-05-06 00:46 | -23.51458 | 29.14986 | 39909 ft | 512 kts | 199° |
| 2026-05-06 00:47 | -23.59647 | 29.13289 | 39918 ft | 512 kts | 199° |
| 2026-05-06 00:47 | -23.66654 | 29.11836 | 39922 ft | 512 kts | 199° |
| 2026-05-06 00:48 | -23.73651 | 29.10383 | 39928 ft | 512 kts | 199° |
| 2026-05-06 00:48 | -23.80652 | 29.08928 | 39937 ft | 512 kts | 199° |
| 2026-05-06 00:49 | -23.87643 | 29.07473 | 39938 ft | 511 kts | 199° |
| 2026-05-06 00:49 | -23.94628 | 29.06017 | 39944 ft | 511 kts | 199° |
| 2026-05-06 00:50 | -24.00435 | 29.04806 | 39951 ft | 511 kts | 199° |
| 2026-05-06 00:50 | -24.08555 | 29.03111 | 39960 ft | 511 kts | 199° |
| 2026-05-06 00:51 | -24.15548 | 29.01655 | 39980 ft | 511 kts | 199° |
| 2026-05-06 00:51 | -24.21403 | 29.00439 | 39982 ft | 512 kts | 199° |
| 2026-05-06 00:52 | -24.28401 | 28.98984 | 39991 ft | 512 kts | 199° |
| 2026-05-06 00:52 | -24.35404 | 28.97525 | 39997 ft | 512 kts | 199° |
| 2026-05-06 00:53 | -24.42359 | 28.96074 | 40003 ft | 512 kts | 199° |
| 2026-05-06 00:53 | -24.49365 | 28.94611 | 40004 ft | 512 kts | 199° |
| 2026-05-06 00:54 | -24.56365 | 28.93148 | 40006 ft | 512 kts | 199° |
| 2026-05-06 00:54 | -24.63369 | 28.91681 | 40014 ft | 512 kts | 199° |
| 2026-05-06 00:55 | -24.70375 | 28.90213 | 40017 ft | 513 kts | 199° |
| 2026-05-06 00:55 | -24.77378 | 28.88743 | 40022 ft | 513 kts | 199° |
| 2026-05-06 00:56 | -24.84390 | 28.87270 | 40017 ft | 513 kts | 199° |
| 2026-05-06 00:56 | -24.91406 | 28.85794 | 40025 ft | 513 kts | 199° |
| 2026-05-06 00:57 | -24.98428 | 28.84315 | 40030 ft | 514 kts | 199° |
| 2026-05-06 00:57 | -25.05456 | 28.82833 | 40030 ft | 514 kts | 199° |
| 2026-05-06 00:58 | -25.12488 | 28.81347 | 40023 ft | 515 kts | 200° |
| 2026-05-06 00:58 | -25.19523 | 28.79860 | 40034 ft | 515 kts | 200° |
| 2026-05-06 00:59 | -25.26563 | 28.78368 | 40034 ft | 516 kts | 200° |
| 2026-05-06 00:59 | -25.33607 | 28.76876 | 40034 ft | 512 kts | 200° |
| 2026-05-06 01:00 | -25.40553 | 28.75405 | 40037 ft | 506 kts | 200° |
| 2026-05-06 01:00 | -25.47459 | 28.74112 | 40029 ft | 515 kts | 190° |
| 2026-05-06 01:01 | -25.54709 | 28.74535 | 40055 ft | 526 kts | 182° |
| 2026-05-06 01:01 | -25.61997 | 28.75354 | 40056 ft | 526 kts | 182° |
| 2026-05-06 01:02 | -25.69296 | 28.76002 | 40054 ft | 526 kts | 184° |
| 2026-05-06 01:02 | -25.76616 | 28.76547 | 40057 ft | 528 kts | 184° |
| 2026-05-06 01:03 | -25.83954 | 28.77101 | 40058 ft | 527 kts | 185° |
| 2026-05-06 01:03 | -25.87538 | 28.76871 | 40060 ft | 508 kts | 200° |
| 2026-05-06 01:03 | -25.90846 | 28.75756 | 40043 ft | 484 kts | 216° |
| 2026-05-06 01:03 | -25.93605 | 28.73902 | 40069 ft | 448 kts | 226° |
| 2026-05-06 01:04 | -25.96116 | 28.71951 | 40043 ft | 431 kts | 228° |
| 2026-05-06 01:04 | -25.98199 | 28.69781 | 40052 ft | 393 kts | 244° |
| 2026-05-06 01:04 | -25.99586 | 28.67319 | 40047 ft | 359 kts | 258° |
| 2026-05-06 01:05 | -26.01432 | 28.62200 | 40056 ft | 359 kts | 259° |
| 2026-05-06 01:05 | -26.03492 | 28.56488 | 40058 ft | 359 kts | 258° |
| 2026-05-06 01:06 | -26.05061 | 28.52208 | 40062 ft | 359 kts | 258° |
| 2026-05-06 01:06 | -26.06868 | 28.46195 | 40057 ft | 334 kts | 276° |
| 2026-05-06 01:06 | -26.06653 | 28.43710 | 40057 ft | 323 kts | 289° |
| 2026-05-06 01:07 | -26.05901 | 28.41392 | 40060 ft | 317 kts | 299° |
| 2026-05-06 01:07 | -26.03161 | 28.37581 | 40055 ft | 322 kts | 320° |
| 2026-05-06 01:08 | -25.99047 | 28.35405 | 40052 ft | 341 kts | 341° |
| 2026-05-06 01:08 | -25.96625 | 28.35291 | 40096 ft | 354 kts | 353° |
| 2026-05-06 01:08 | -25.94958 | 28.35409 | 40102 ft | 356 kts | 353° |
| 2026-05-06 01:09 | -25.89168 | 28.35963 | 40099 ft | 362 kts | 355° |
| 2026-05-06 01:09 | -25.84994 | 28.36402 | 40104 ft | 363 kts | 354° |
| 2026-05-06 01:10 | -25.79967 | 28.36882 | 40084 ft | 362 kts | 354° |
| 2026-05-06 01:10 | -25.74958 | 28.37339 | 40080 ft | 360 kts | 354° |
| 2026-05-06 01:11 | -25.69983 | 28.37776 | 40014 ft | 358 kts | 354° |
| 2026-05-06 01:11 | -25.65039 | 28.38195 | 40013 ft | 354 kts | 353° |
| 2026-05-06 01:12 | -25.60136 | 28.38573 | 40022 ft | 352 kts | 353° |